sensor_id;sensor_type;location;lat;lon;timestamp;pressure;altitude;pressure_sealevel;temperature;humidity
49194;BME280;35029;50.804;12.866;2022-07-18T00:02:18;98650.41;;;14.09;59.88
49194;BME280;35029;50.804;12.866;2022-07-18T00:04:44;98646.38;;;13.92;60.34
49194;BME280;35029;50.804;12.866;2022-07-18T00:07:10;98643.53;;;13.93;60.35
49194;BME280;35029;50.804;12.866;2022-07-18T00:09:37;98640.28;;;13.98;59.75
49194;BME280;35029;50.804;12.866;2022-07-18T00:12:04;98618.88;;;13.84;59.72
49194;BME280;35029;50.804;12.866;2022-07-18T00:14:29;98635.13;;;13.90;59.55
49194;BME280;35029;50.804;12.866;2022-07-18T00:16:55;98631.75;;;13.81;60.02
49194;BME280;35029;50.804;12.866;2022-07-18T00:19:20;98632.06;;;13.64;59.86
49194;BME280;35029;50.804;12.866;2022-07-18T00:21:46;98633.03;;;13.57;60.67
49194;BME280;35029;50.804;12.866;2022-07-18T00:24:12;98625.56;;;13.45;61.06
49194;BME280;35029;50.804;12.866;2022-07-18T00:26:37;98611.28;;;13.31;61.23
49194;BME280;35029;50.804;12.866;2022-07-18T00:29:03;98621.31;;;13.29;61.20
49194;BME280;35029;50.804;12.866;2022-07-18T00:31:28;98619.06;;;13.33;60.79
49194;BME280;35029;50.804;12.866;2022-07-18T00:33:54;98630.16;;;13.15;61.11
49194;BME280;35029;50.804;12.866;2022-07-18T00:36:20;98633.66;;;13.15;61.21
49194;BME280;35029;50.804;12.866;2022-07-18T00:38:45;98632.84;;;13.15;61.60
49194;BME280;35029;50.804;12.866;2022-07-18T00:41:14;98631.19;;;13.14;61.47
49194;BME280;35029;50.804;12.866;2022-07-18T00:43:41;98629.53;;;13.13;61.01
49194;BME280;35029;50.804;12.866;2022-07-18T00:46:06;98625.66;;;13.15;60.89
49194;BME280;35029;50.804;12.866;2022-07-18T00:48:32;98610.84;;;13.06;60.74
49194;BME280;35029;50.804;12.866;2022-07-18T00:50:57;98631.75;;;13.09;61.15
49194;BME280;35029;50.804;12.866;2022-07-18T00:53:23;98631.44;;;12.97;60.78
49194;BME280;35029;50.804;12.866;2022-07-18T00:55:49;98638.59;;;12.97;61.72
49194;BME280;35029;50.804;12.866;2022-07-18T00:58:15;98632.13;;;12.84;61.87
49194;BME280;35029;50.804;12.866;2022-07-18T01:00:41;98635.66;;;12.92;61.74
49194;BME280;35029;50.804;12.866;2022-07-18T01:03:26;98642.19;;;12.89;61.61
49194;BME280;35029;50.804;12.866;2022-07-18T01:05:52;98645.97;;;12.80;61.59
49194;BME280;35029;50.804;12.866;2022-07-18T01:08:18;98640.13;;;12.70;61.85
49194;BME280;35029;50.804;12.866;2022-07-18T01:10:43;98642.38;;;12.51;62.25
49194;BME280;35029;50.804;12.866;2022-07-18T01:13:09;98651.53;;;12.48;63.26
49194;BME280;35029;50.804;12.866;2022-07-18T01:15:35;98648.06;;;12.48;63.47
49194;BME280;35029;50.804;12.866;2022-07-18T01:18:02;98658.03;;;12.46;63.75
49194;BME280;35029;50.804;12.866;2022-07-18T01:20:29;98656.41;;;12.45;64.03
49194;BME280;35029;50.804;12.866;2022-07-18T01:22:56;98656.41;;;12.45;63.57
49194;BME280;35029;50.804;12.866;2022-07-18T01:25:22;98647.25;;;12.32;63.53
49194;BME280;35029;50.804;12.866;2022-07-18T01:27:47;98655.41;;;12.31;63.71
49194;BME280;35029;50.804;12.866;2022-07-18T01:30:13;98637.44;;;12.33;63.35
49194;BME280;35029;50.804;12.866;2022-07-18T01:32:40;98649.72;;;12.34;63.84
49194;BME280;35029;50.804;12.866;2022-07-18T01:35:06;98644.84;;;12.23;63.98
49194;BME280;35029;50.804;12.866;2022-07-18T01:37:31;98629.47;;;12.18;63.29
49194;BME280;35029;50.804;12.866;2022-07-18T01:39:57;98643.75;;;12.17;64.41
49194;BME280;35029;50.804;12.866;2022-07-18T01:42:22;98634.31;;;12.14;64.25
49194;BME280;35029;50.804;12.866;2022-07-18T01:44:48;98633.88;;;12.11;64.18
49194;BME280;35029;50.804;12.866;2022-07-18T01:47:14;98628.56;;;12.11;64.03
49194;BME280;35029;50.804;12.866;2022-07-18T01:49:40;98639.09;;;12.04;65.22
49194;BME280;35029;50.804;12.866;2022-07-18T01:52:06;98642.47;;;11.98;64.97
49194;BME280;35029;50.804;12.866;2022-07-18T01:54:34;98643.00;;;11.93;65.31
49194;BME280;35029;50.804;12.866;2022-07-18T01:57:01;98651.50;;;11.89;65.39
49194;BME280;35029;50.804;12.866;2022-07-18T01:59:27;98664.78;;;11.89;64.91
49194;BME280;35029;50.804;12.866;2022-07-18T02:01:53;98641.84;;;11.96;64.71
49194;BME280;35029;50.804;12.866;2022-07-18T02:04:18;98644.84;;;12.08;64.03
49194;BME280;35029;50.804;12.866;2022-07-18T02:06:44;98639.53;;;12.08;63.67
49194;BME280;35029;50.804;12.866;2022-07-18T02:09:10;98638.25;;;12.04;63.65
49194;BME280;35029;50.804;12.866;2022-07-18T02:11:37;98637.41;;;11.88;64.67
49194;BME280;35029;50.804;12.866;2022-07-18T02:14:04;98636.81;;;11.78;64.90
49194;BME280;35029;50.804;12.866;2022-07-18T02:16:30;98629.22;;;11.75;64.94
49194;BME280;35029;50.804;12.866;2022-07-18T02:18:57;98637.44;;;11.65;65.95
49194;BME280;35029;50.804;12.866;2022-07-18T02:21:23;98633.25;;;11.71;66.06
49194;BME280;35029;50.804;12.866;2022-07-18T02:23:49;98629.22;;;11.75;65.43
49194;BME280;35029;50.804;12.866;2022-07-18T02:26:16;98634.63;;;11.66;65.34
49194;BME280;35029;50.804;12.866;2022-07-18T02:28:42;98633.25;;;11.71;65.61
49194;BME280;35029;50.804;12.866;2022-07-18T02:31:07;98635.16;;;11.62;65.87
49194;BME280;35029;50.804;12.866;2022-07-18T02:33:34;98638.63;;;11.62;65.29
49194;BME280;35029;50.804;12.866;2022-07-18T02:35:59;98637.34;;;11.58;66.05
49194;BME280;35029;50.804;12.866;2022-07-18T02:38:25;98623.16;;;11.51;65.86
49194;BME280;35029;50.804;12.866;2022-07-18T02:40:50;98637.59;;;11.48;65.68
49194;BME280;35029;50.804;12.866;2022-07-18T02:43:16;98632.25;;;11.33;65.96
49194;BME280;35029;50.804;12.866;2022-07-18T02:45:41;98637.19;;;11.37;66.27
49194;BME280;35029;50.804;12.866;2022-07-18T02:48:07;98634.72;;;11.35;66.20
49194;BME280;35029;50.804;12.866;2022-07-18T02:50:33;98626.75;;;11.35;65.94
49194;BME280;35029;50.804;12.866;2022-07-18T02:52:59;98633.00;;;11.42;66.04
49194;BME280;35029;50.804;12.866;2022-07-18T02:55:24;98622.63;;;11.32;66.83
49194;BME280;35029;50.804;12.866;2022-07-18T02:57:50;98628.41;;;11.36;66.31
49194;BME280;35029;50.804;12.866;2022-07-18T03:00:16;98632.53;;;11.39;65.95
49194;BME280;35029;50.804;12.866;2022-07-18T03:02:43;98633.34;;;11.39;66.22
49194;BME280;35029;50.804;12.866;2022-07-18T03:05:09;98633.06;;;11.34;66.17
49194;BME280;35029;50.804;12.866;2022-07-18T03:07:35;98634.16;;;11.25;66.52
49194;BME280;35029;50.804;12.866;2022-07-18T03:10:03;98637.50;;;11.19;67.09
49194;BME280;35029;50.804;12.866;2022-07-18T03:12:29;98631.72;;;11.15;67.15
49194;BME280;35029;50.804;12.866;2022-07-18T03:14:54;98616.81;;;11.14;66.94
49194;BME280;35029;50.804;12.866;2022-07-18T03:17:20;98628.47;;;11.28;66.34
49194;BME280;35029;50.804;12.866;2022-07-18T03:19:45;98620.53;;;11.28;66.51
49194;BME280;35029;50.804;12.866;2022-07-18T03:22:11;98618.03;;;11.26;66.67
49194;BME280;35029;50.804;12.866;2022-07-18T03:24:36;98614.53;;;11.26;66.77
49194;BME280;35029;50.804;12.866;2022-07-18T03:27:02;98612.44;;;11.21;67.30
49194;BME280;35029;50.804;12.866;2022-07-18T03:29:28;98618.75;;;11.20;67.69
49194;BME280;35029;50.804;12.866;2022-07-18T03:31:53;98630.91;;;11.14;67.87
49194;BME280;35029;50.804;12.866;2022-07-18T03:34:19;98638.38;;;11.11;68.00
49194;BME280;35029;50.804;12.866;2022-07-18T03:36:45;98631.25;;;11.11;67.76
49194;BME280;35029;50.804;12.866;2022-07-18T03:39:10;98635.03;;;11.17;68.09
49194;BME280;35029;50.804;12.866;2022-07-18T03:41:38;98636.56;;;11.11;68.32
49194;BME280;35029;50.804;12.866;2022-07-18T03:44:04;98633.38;;;11.16;68.50
49194;BME280;35029;50.804;12.866;2022-07-18T03:46:30;98632.19;;;11.19;67.65
49194;BME280;35029;50.804;12.866;2022-07-18T03:48:56;98623.69;;;11.23;67.78
49194;BME280;35029;50.804;12.866;2022-07-18T03:51:22;98621.34;;;11.28;67.60
49194;BME280;35029;50.804;12.866;2022-07-18T03:53:48;98625.94;;;11.35;67.48
49194;BME280;35029;50.804;12.866;2022-07-18T03:56:14;98624.09;;;11.35;67.81
49194;BME280;35029;50.804;12.866;2022-07-18T03:58:40;98623.09;;;11.36;67.60
49194;BME280;35029;50.804;12.866;2022-07-18T04:01:05;98629.97;;;11.30;68.31
49194;BME280;35029;50.804;12.866;2022-07-18T04:03:31;98617.19;;;11.26;68.36
49194;BME280;35029;50.804;12.866;2022-07-18T04:05:56;98623.63;;;11.31;68.28
49194;BME280;35029;50.804;12.866;2022-07-18T04:08:22;98626.22;;;11.40;68.86
49194;BME280;35029;50.804;12.866;2022-07-18T04:10:47;98623.03;;;11.44;68.79
49194;BME280;35029;50.804;12.866;2022-07-18T04:13:13;98620.94;;;11.55;68.22
49194;BME280;35029;50.804;12.866;2022-07-18T04:15:39;98619.22;;;11.62;67.73
49194;BME280;35029;50.804;12.866;2022-07-18T04:18:06;98618.06;;;11.64;68.59
49194;BME280;35029;50.804;12.866;2022-07-18T04:20:33;98625.34;;;11.62;69.22
49194;BME280;35029;50.804;12.866;2022-07-18T04:23:00;98621.69;;;11.63;69.41
49194;BME280;35029;50.804;12.866;2022-07-18T04:25:28;98634.97;;;11.63;70.18
49194;BME280;35029;50.804;12.866;2022-07-18T04:27:54;98638.75;;;11.69;70.29
49194;BME280;35029;50.804;12.866;2022-07-18T04:30:23;98653.78;;;11.77;70.33
49194;BME280;35029;50.804;12.866;2022-07-18T04:32:49;98635.53;;;11.74;69.98
49194;BME280;35029;50.804;12.866;2022-07-18T04:35:15;98637.22;;;11.90;70.98
49194;BME280;35029;50.804;12.866;2022-07-18T04:37:41;98634.59;;;12.05;70.91
49194;BME280;35029;50.804;12.866;2022-07-18T04:40:08;98622.97;;;12.06;70.96
49194;BME280;35029;50.804;12.866;2022-07-18T04:42:34;98626.63;;;12.20;70.85
49194;BME280;35029;50.804;12.866;2022-07-18T04:45:01;98627.00;;;12.31;70.60
49194;BME280;35029;50.804;12.866;2022-07-18T04:47:27;98625.69;;;12.42;70.32
49194;BME280;35029;50.804;12.866;2022-07-18T04:49:53;98624.94;;;12.48;70.96
49194;BME280;35029;50.804;12.866;2022-07-18T04:52:19;98618.25;;;12.52;70.93
49194;BME280;35029;50.804;12.866;2022-07-18T04:54:44;98615.38;;;12.54;71.23
49194;BME280;35029;50.804;12.866;2022-07-18T04:57:10;98612.69;;;12.69;70.99
49194;BME280;35029;50.804;12.866;2022-07-18T04:59:38;98621.66;;;12.83;70.37
49194;BME280;35029;50.804;12.866;2022-07-18T05:02:04;98616.50;;;12.81;70.73
49194;BME280;35029;50.804;12.866;2022-07-18T05:04:30;98623.56;;;12.89;70.68
49194;BME280;35029;50.804;12.866;2022-07-18T05:06:55;98620.78;;;12.97;70.94
49194;BME280;35029;50.804;12.866;2022-07-18T05:09:21;98624.97;;;13.07;70.77
49194;BME280;35029;50.804;12.866;2022-07-18T05:11:46;98626.84;;;13.13;71.00
49194;BME280;35029;50.804;12.866;2022-07-18T05:14:12;98621.03;;;13.24;71.03
49194;BME280;35029;50.804;12.866;2022-07-18T05:16:37;98634.03;;;13.34;70.71
49194;BME280;35029;50.804;12.866;2022-07-18T05:19:03;98600.38;;;13.26;71.23
49194;BME280;35029;50.804;12.866;2022-07-18T05:21:28;98630.94;;;13.52;70.97
49194;BME280;35029;50.804;12.866;2022-07-18T05:23:56;98622.44;;;13.63;70.66
49194;BME280;35029;50.804;12.866;2022-07-18T05:26:22;98614.09;;;13.73;70.19
49194;BME280;35029;50.804;12.866;2022-07-18T05:28:47;98608.19;;;13.78;69.81
49194;BME280;35029;50.804;12.866;2022-07-18T05:31:13;98625.34;;;14.03;69.60
49194;BME280;35029;50.804;12.866;2022-07-18T05:33:38;98611.63;;;14.07;69.40
49194;BME280;35029;50.804;12.866;2022-07-18T05:36:04;98617.03;;;14.20;68.61
49194;BME280;35029;50.804;12.866;2022-07-18T05:38:30;98627.59;;;14.42;67.95
49194;BME280;35029;50.804;12.866;2022-07-18T05:40:55;98624.59;;;14.58;66.83
49194;BME280;35029;50.804;12.866;2022-07-18T05:43:21;98622.03;;;14.78;65.87
49194;BME280;35029;50.804;12.866;2022-07-18T05:45:46;98624.38;;;15.21;66.54
49194;BME280;35029;50.804;12.866;2022-07-18T05:48:12;98623.34;;;15.36;60.70
49194;BME280;35029;50.804;12.866;2022-07-18T05:50:37;98623.16;;;15.44;59.37
49194;BME280;35029;50.804;12.866;2022-07-18T05:53:03;98612.69;;;15.49;59.10
49194;BME280;35029;50.804;12.866;2022-07-18T05:55:29;98604.44;;;15.51;59.40
49194;BME280;35029;50.804;12.866;2022-07-18T05:57:54;98617.00;;;15.64;59.03
49194;BME280;35029;50.804;12.866;2022-07-18T06:00:20;98614.50;;;15.76;57.60
49194;BME280;35029;50.804;12.866;2022-07-18T06:02:49;98604.47;;;15.91;56.06
49194;BME280;35029;50.804;12.866;2022-07-18T06:05:15;98598.47;;;16.02;55.67
49194;BME280;35029;50.804;12.866;2022-07-18T06:07:40;98595.13;;;16.14;55.30
49194;BME280;35029;50.804;12.866;2022-07-18T06:10:06;98603.75;;;16.22;55.13
49194;BME280;35029;50.804;12.866;2022-07-18T06:12:32;98582.72;;;16.26;54.14
49194;BME280;35029;50.804;12.866;2022-07-18T06:14:58;98594.59;;;16.44;52.53
49194;BME280;35029;50.804;12.866;2022-07-18T06:17:24;98600.34;;;16.54;50.79
49194;BME280;35029;50.804;12.866;2022-07-18T06:19:50;98604.22;;;16.65;50.18
49194;BME280;35029;50.804;12.866;2022-07-18T06:22:16;98584.59;;;16.71;48.45
49194;BME280;35029;50.804;12.866;2022-07-18T06:24:41;98597.47;;;16.87;46.69
49194;BME280;35029;50.804;12.866;2022-07-18T06:27:07;98595.56;;;17.01;46.40
49194;BME280;35029;50.804;12.866;2022-07-18T06:29:32;98597.97;;;17.10;46.80
49194;BME280;35029;50.804;12.866;2022-07-18T06:31:58;98595.88;;;17.18;47.01
49194;BME280;35029;50.804;12.866;2022-07-18T06:34:24;98611.25;;;17.30;47.78
49194;BME280;35029;50.804;12.866;2022-07-18T06:36:49;98600.81;;;17.47;44.96
49194;BME280;35029;50.804;12.866;2022-07-18T06:39:15;98603.00;;;17.56;44.30
49194;BME280;35029;50.804;12.866;2022-07-18T06:41:43;98594.38;;;17.73;44.90
49194;BME280;35029;50.804;12.866;2022-07-18T06:44:12;98594.72;;;17.83;45.52
49194;BME280;35029;50.804;12.866;2022-07-18T06:46:38;98589.44;;;17.95;45.11
49194;BME280;35029;50.804;12.866;2022-07-18T06:49:04;98594.28;;;18.05;44.76
49194;BME280;35029;50.804;12.866;2022-07-18T06:51:29;98586.47;;;18.22;44.45
49194;BME280;35029;50.804;12.866;2022-07-18T06:53:56;98582.00;;;18.34;43.48
49194;BME280;35029;50.804;12.866;2022-07-18T06:56:22;98582.19;;;18.51;41.76
49194;BME280;35029;50.804;12.866;2022-07-18T06:58:48;98591.25;;;18.69;41.03
49194;BME280;35029;50.804;12.866;2022-07-18T07:01:17;98586.50;;;18.83;40.80
49194;BME280;35029;50.804;12.866;2022-07-18T07:03:43;98590.13;;;18.95;40.43
49194;BME280;35029;50.804;12.866;2022-07-18T07:06:09;98587.44;;;19.07;42.88
49194;BME280;35029;50.804;12.866;2022-07-18T07:08:35;98580.69;;;19.16;44.43
49194;BME280;35029;50.804;12.866;2022-07-18T07:11:01;98588.41;;;19.24;41.48
49194;BME280;35029;50.804;12.866;2022-07-18T07:13:26;98592.88;;;19.31;41.96
49194;BME280;35029;50.804;12.866;2022-07-18T07:15:52;98585.53;;;19.38;39.57
49194;BME280;35029;50.804;12.866;2022-07-18T07:18:18;98593.00;;;19.48;39.66
49194;BME280;35029;50.804;12.866;2022-07-18T07:20:43;98595.47;;;19.61;39.70
49194;BME280;35029;50.804;12.866;2022-07-18T07:23:09;98588.72;;;19.70;40.77
49194;BME280;35029;50.804;12.866;2022-07-18T07:25:36;98590.34;;;19.83;42.27
49194;BME280;35029;50.804;12.866;2022-07-18T07:28:03;98591.66;;;19.92;40.28
49194;BME280;35029;50.804;12.866;2022-07-18T07:30:30;98579.91;;;19.99;39.34
49194;BME280;35029;50.804;12.866;2022-07-18T07:32:56;98596.75;;;20.18;40.95
49194;BME280;35029;50.804;12.866;2022-07-18T07:35:21;98594.53;;;20.26;40.04
49194;BME280;35029;50.804;12.866;2022-07-18T07:37:50;98586.88;;;20.35;39.99
49194;BME280;35029;50.804;12.866;2022-07-18T07:40:16;98580.41;;;20.48;37.73
49194;BME280;35029;50.804;12.866;2022-07-18T07:42:42;98579.19;;;20.56;36.53
49194;BME280;35029;50.804;12.866;2022-07-18T07:45:09;98586.91;;;20.64;36.41
49194;BME280;35029;50.804;12.866;2022-07-18T07:47:35;98589.03;;;20.74;36.76
49194;BME280;35029;50.804;12.866;2022-07-18T07:50:01;98584.03;;;20.83;36.71
49194;BME280;35029;50.804;12.866;2022-07-18T07:52:27;98577.22;;;20.92;37.71
49194;BME280;35029;50.804;12.866;2022-07-18T07:54:54;98579.03;;;21.03;36.19
49194;BME280;35029;50.804;12.866;2022-07-18T07:57:20;98581.41;;;21.17;36.33
49194;BME280;35029;50.804;12.866;2022-07-18T07:59:45;98574.22;;;21.22;35.53
49194;BME280;35029;50.804;12.866;2022-07-18T08:02:11;98580.44;;;21.23;34.93
49194;BME280;35029;50.804;12.866;2022-07-18T08:04:36;98581.66;;;21.32;39.05
49194;BME280;35029;50.804;12.866;2022-07-18T08:07:02;98575.84;;;21.40;37.83
49194;BME280;35029;50.804;12.866;2022-07-18T08:09:28;98576.53;;;21.48;35.24
49194;BME280;35029;50.804;12.866;2022-07-18T08:11:53;98565.59;;;21.54;34.89
49194;BME280;35029;50.804;12.866;2022-07-18T08:14:19;98583.31;;;21.67;33.69
49194;BME280;35029;50.804;12.866;2022-07-18T08:16:44;98578.78;;;21.73;36.23
49194;BME280;35029;50.804;12.866;2022-07-18T08:19:10;98577.56;;;21.81;34.30
49194;BME280;35029;50.804;12.866;2022-07-18T08:21:35;98572.25;;;21.86;33.94
49194;BME280;35029;50.804;12.866;2022-07-18T08:26:26;98558.19;;;22.06;33.36
49194;BME280;35029;50.804;12.866;2022-07-18T08:28:52;98564.72;;;22.10;33.63
49194;BME280;35029;50.804;12.866;2022-07-18T08:31:18;98566.16;;;22.18;32.56
49194;BME280;35029;50.804;12.866;2022-07-18T08:33:44;98563.19;;;22.36;31.70
49194;BME280;35029;50.804;12.866;2022-07-18T08:36:10;98556.31;;;22.51;32.57
49194;BME280;35029;50.804;12.866;2022-07-18T08:38:36;98559.59;;;22.53;31.23
49194;BME280;35029;50.804;12.866;2022-07-18T08:41:03;98557.44;;;22.55;32.19
49194;BME280;35029;50.804;12.866;2022-07-18T08:43:29;98561.28;;;22.59;31.87
49194;BME280;35029;50.804;12.866;2022-07-18T08:45:57;98551.38;;;22.70;31.64
49194;BME280;35029;50.804;12.866;2022-07-18T08:48:26;98561.47;;;22.79;33.09
49194;BME280;35029;50.804;12.866;2022-07-18T08:50:52;98564.97;;;22.75;33.47
49194;BME280;35029;50.804;12.866;2022-07-18T08:53:19;98559.03;;;22.78;33.09
49194;BME280;35029;50.804;12.866;2022-07-18T08:55:46;98558.94;;;22.95;33.21
49194;BME280;35029;50.804;12.866;2022-07-18T08:58:11;98552.28;;;23.08;31.98
49194;BME280;35029;50.804;12.866;2022-07-18T09:00:39;98548.78;;;23.07;31.68
49194;BME280;35029;50.804;12.866;2022-07-18T09:03:04;98550.00;;;23.22;31.45
49194;BME280;35029;50.804;12.866;2022-07-18T09:05:32;98550.88;;;23.27;31.10
49194;BME280;35029;50.804;12.866;2022-07-18T09:08:27;98552.13;;;23.52;29.75
49194;BME280;35029;50.804;12.866;2022-07-18T09:10:55;98552.22;;;23.68;31.35
49194;BME280;35029;50.804;12.866;2022-07-18T09:13:30;98537.91;;;23.77;30.90
49194;BME280;35029;50.804;12.866;2022-07-18T09:16:02;98540.97;;;23.86;31.42
49194;BME280;35029;50.804;12.866;2022-07-18T09:18:36;98538.56;;;23.90;30.34
49194;BME280;35029;50.804;12.866;2022-07-18T09:21:09;98535.06;;;23.94;29.53
49194;BME280;35029;50.804;12.866;2022-07-18T09:23:38;98524.50;;;23.93;31.29
49194;BME280;35029;50.804;12.866;2022-07-18T09:26:05;98533.78;;;24.12;31.05
49194;BME280;35029;50.804;12.866;2022-07-18T09:28:47;98530.63;;;24.31;32.14
49194;BME280;35029;50.804;12.866;2022-07-18T09:31:18;98539.53;;;24.26;28.90
49194;BME280;35029;50.804;12.866;2022-07-18T09:33:52;98534.41;;;24.40;28.74
49194;BME280;35029;50.804;12.866;2022-07-18T09:36:17;98533.06;;;24.38;29.08
49194;BME280;35029;50.804;12.866;2022-07-18T09:38:43;98539.59;;;24.47;29.22
49194;BME280;35029;50.804;12.866;2022-07-18T09:41:11;98535.00;;;24.47;29.22
49194;BME280;35029;50.804;12.866;2022-07-18T09:43:38;98537.97;;;24.51;28.79
49194;BME280;35029;50.804;12.866;2022-07-18T09:46:04;98533.66;;;24.50;27.93
49194;BME280;35029;50.804;12.866;2022-07-18T09:48:31;98540.69;;;24.51;30.38
49194;BME280;35029;50.804;12.866;2022-07-18T09:51:02;98542.31;;;24.42;28.43
49194;BME280;35029;50.804;12.866;2022-07-18T09:53:34;98542.31;;;24.52;30.33
49194;BME280;35029;50.804;12.866;2022-07-18T09:58:31;98538.28;;;24.60;28.10
49194;BME280;35029;50.804;12.866;2022-07-18T10:00:58;98538.59;;;24.74;27.35
49194;BME280;35029;50.804;12.866;2022-07-18T10:03:25;98529.66;;;24.73;27.66
49194;BME280;35029;50.804;12.866;2022-07-18T10:05:52;98532.38;;;24.89;27.85
49194;BME280;35029;50.804;12.866;2022-07-18T10:08:20;98531.84;;;25.02;27.96
49194;BME280;35029;50.804;12.866;2022-07-18T10:10:47;98526.16;;;25.09;27.73
49194;BME280;35029;50.804;12.866;2022-07-18T10:13:14;98526.41;;;25.23;28.08
49194;BME280;35029;50.804;12.866;2022-07-18T10:15:42;98532.41;;;25.40;28.36
49194;BME280;35029;50.804;12.866;2022-07-18T10:18:10;98530.50;;;25.25;26.43
49194;BME280;35029;50.804;12.866;2022-07-18T10:20:43;98528.31;;;25.17;27.71
49194;BME280;35029;50.804;12.866;2022-07-18T10:23:16;98529.97;;;25.34;26.51
49194;BME280;35029;50.804;12.866;2022-07-18T10:25:43;98545.38;;;25.64;27.57
49194;BME280;35029;50.804;12.866;2022-07-18T10:28:11;98534.22;;;25.81;27.45
49194;BME280;35029;50.804;12.866;2022-07-18T10:33:38;98531.97;;;26.09;28.33
49194;BME280;35029;50.804;12.866;2022-07-18T10:36:13;98526.81;;;26.12;27.93
49194;BME280;35029;50.804;12.866;2022-07-18T10:39:13;98521.88;;;26.25;25.57
49194;BME280;35029;50.804;12.866;2022-07-18T10:57:37;98505.00;;;26.28;23.80
49194;BME280;35029;50.804;12.866;2022-07-18T11:00:08;98511.97;;;26.44;24.79
49194;BME280;35029;50.804;12.866;2022-07-18T11:02:45;98506.84;;;26.38;23.72
49194;BME280;35029;50.804;12.866;2022-07-18T11:16:02;98513.16;;;26.23;23.60
49194;BME280;35029;50.804;12.866;2022-07-18T11:21:32;98493.94;;;26.59;25.53
49194;BME280;35029;50.804;12.866;2022-07-18T11:24:04;98491.13;;;26.74;23.54
49194;BME280;35029;50.804;12.866;2022-07-18T11:26:33;98494.34;;;26.81;23.27
49194;BME280;35029;50.804;12.866;2022-07-18T11:29:07;98500.81;;;26.91;22.85
49194;BME280;35029;50.804;12.866;2022-07-18T11:31:46;98502.00;;;26.74;24.86
49194;BME280;35029;50.804;12.866;2022-07-18T11:34:12;98489.84;;;27.01;24.16
49194;BME280;35029;50.804;12.866;2022-07-18T11:36:39;98486.34;;;27.25;24.31
49194;BME280;35029;50.804;12.866;2022-07-18T11:39:06;98488.66;;;27.12;22.66
49194;BME280;35029;50.804;12.866;2022-07-18T11:41:32;98485.50;;;27.00;22.47
49194;BME280;35029;50.804;12.866;2022-07-18T11:43:58;98472.69;;;27.01;25.04
49194;BME280;35029;50.804;12.866;2022-07-18T11:46:26;98486.31;;;27.30;24.79
49194;BME280;35029;50.804;12.866;2022-07-18T11:49:05;98475.06;;;27.66;24.45
49194;BME280;35029;50.804;12.866;2022-07-18T11:54:01;98467.38;;;27.73;26.31
49194;BME280;35029;50.804;12.866;2022-07-18T11:56:27;98468.41;;;27.77;25.35
49194;BME280;35029;50.804;12.866;2022-07-18T11:58:52;98469.91;;;27.64;24.95
49194;BME280;35029;50.804;12.866;2022-07-18T12:01:18;98472.88;;;27.68;25.28
49194;BME280;35029;50.804;12.866;2022-07-18T12:03:46;98469.97;;;27.83;24.85
49194;BME280;35029;50.804;12.866;2022-07-18T12:08:43;98467.84;;;28.24;24.68
49194;BME280;35029;50.804;12.866;2022-07-18T12:11:13;98466.22;;;28.23;23.46
49194;BME280;35029;50.804;12.866;2022-07-18T12:18:55;98457.66;;;28.48;23.57
49194;BME280;35029;50.804;12.866;2022-07-18T12:21:21;98456.72;;;28.39;24.26
49194;BME280;35029;50.804;12.866;2022-07-18T12:23:47;98457.38;;;28.31;26.37
49194;BME280;35029;50.804;12.866;2022-07-18T12:26:31;98460.91;;;28.12;26.47
49194;BME280;35029;50.804;12.866;2022-07-18T12:29:09;98463.63;;;28.12;25.13
49194;BME280;35029;50.804;12.866;2022-07-18T12:31:40;98453.38;;;28.04;25.77
49194;BME280;35029;50.804;12.866;2022-07-18T12:34:16;98454.34;;;28.13;25.78
49194;BME280;35029;50.804;12.866;2022-07-18T12:36:56;98453.31;;;28.09;24.59
49194;BME280;35029;50.804;12.866;2022-07-18T12:39:32;98450.72;;;28.37;24.71
49194;BME280;35029;50.804;12.866;2022-07-18T12:41:59;98441.16;;;28.40;24.41
49194;BME280;35029;50.804;12.866;2022-07-18T12:44:27;98435.13;;;28.43;25.98
49194;BME280;35029;50.804;12.866;2022-07-18T12:46:53;98439.47;;;28.25;26.65
49194;BME280;35029;50.804;12.866;2022-07-18T12:49:19;98435.94;;;28.43;27.01
49194;BME280;35029;50.804;12.866;2022-07-18T12:51:45;98440.84;;;28.60;26.46
49194;BME280;35029;50.804;12.866;2022-07-18T12:54:11;98434.69;;;28.88;27.18
49194;BME280;35029;50.804;12.866;2022-07-18T12:56:36;98435.84;;;29.00;24.84
49194;BME280;35029;50.804;12.866;2022-07-18T12:59:02;98434.53;;;28.98;24.33
49194;BME280;35029;50.804;12.866;2022-07-18T13:01:28;98428.81;;;28.80;26.10
49194;BME280;35029;50.804;12.866;2022-07-18T13:03:54;98437.53;;;28.82;24.60
49194;BME280;35029;50.804;12.866;2022-07-18T13:06:20;98431.13;;;28.73;25.61
49194;BME280;35029;50.804;12.866;2022-07-18T13:08:45;98440.63;;;28.57;26.58
49194;BME280;35029;50.804;12.866;2022-07-18T13:11:11;98431.06;;;28.40;24.76
49194;BME280;35029;50.804;12.866;2022-07-18T13:13:37;98430.06;;;28.36;25.10
49194;BME280;35029;50.804;12.866;2022-07-18T13:16:04;98426.84;;;28.67;25.71
49194;BME280;35029;50.804;12.866;2022-07-18T13:18:30;98425.94;;;29.05;25.33
49194;BME280;35029;50.804;12.866;2022-07-18T13:20:55;98424.09;;;29.00;25.38
49194;BME280;35029;50.804;12.866;2022-07-18T13:23:21;98409.44;;;28.96;26.81
49194;BME280;35029;50.804;12.866;2022-07-18T13:25:46;98426.25;;;29.03;24.75
49194;BME280;35029;50.804;12.866;2022-07-18T13:28:12;98427.44;;;28.97;27.22
49194;BME280;35029;50.804;12.866;2022-07-18T13:30:37;98427.94;;;28.85;28.02
49194;BME280;35029;50.804;12.866;2022-07-18T13:33:04;98431.50;;;29.13;26.71
49194;BME280;35029;50.804;12.866;2022-07-18T13:35:29;98426.63;;;29.43;25.90
49194;BME280;35029;50.804;12.866;2022-07-18T13:37:55;98421.16;;;29.71;23.81